Darstellungsparameter: Aktuell verwendete Einstellungen:
Skalierung der Graphiken ... ?
xyx+y,   Skalierungsfaktor:      Skalierung: Modus: x, Faktor: 1
Darstellungszeitraum ... ?
Vom - - bis: - -   Zeitraum: 13.05.2021 - 14.05.2021
Min/Max/Avg-Anzeige ... ?
Zeige MMA aktuell
Zeige MMA Monat
Zeige MMA alles
Zeige --A aktuell
Zeige --A Monat
Zeige --A alles
Keine MMA-Anzeige
MMA:
Average (ber die Originaldaten)
MMA-Basis: 13.05.2021 - 14.05.2021
Quicknavigation für Darstellung... ?
Tage:      1T, 2T, 3T, 5T -1T -2T -3T -5T +1T +2T +3T +5T
Wochen: 1W, 2W, 3W -1W -2W -3W +1W +2W +3W
Monate: 1M, 3M, 6M -1M -3M -6M +1M +3M +6M
Jahre:    1J, 3J, 5J, 10J -1J -3J -5J -10J +1J +3J +5J +10J
Nutze für die Darstellung ... ?
Originaldaten oder Mittelwerte auf ...
Stundenbasis Tagesbasis Wochenbasis
Monatsbasis Jahresbasis      Datenbasis: Original-Daten
Darstellen als:
Statistik (Auto) Statistik J:M      Darstellung:

Der gewünschte Datumsbereich war nicht gültig/verfügbar und wurde korrigiert....
Das angegebene Enddatum (18.02.2024 23:59:59) liegt in der Zukunft.
Das angegebene Startdatum (29.01.2024 00:00:00) liegt in der Zukunft.


Zur Graphik,    zurück zur Übersicht aller Sensoren.
 
Tabellarische Datenbersicht: ?
 
Sensor: Nr:Datum:Temp:Feuchte:Taupunkt:
Aussen-T/F 1 13-05-2021 02:00:00 8.5 C 93 % 7.43 C
2 13-05-2021 02:05:00 8.4 C 93 % 7.34 C
3 13-05-2021 02:10:00 8.4 C 93 % 7.34 C
4 13-05-2021 02:15:00 8.3 C 93 % 7.24 C
5 13-05-2021 02:20:00 8.3 C 93 % 7.24 C
6 13-05-2021 02:25:00 8.2 C 93 % 7.14 C
7 13-05-2021 02:30:00 8.1 C 93 % 7.04 C
8 13-05-2021 02:35:00 8.1 C 93 % 7.04 C
9 13-05-2021 02:40:00 8 C 94 % 7.09 C
10 13-05-2021 02:45:00 7.9 C 94 % 7 C
11 13-05-2021 02:50:00 7.9 C 94 % 7 C
12 13-05-2021 02:55:00 8 C 94 % 7.09 C
13 13-05-2021 03:00:00 7.9 C 94 % 7 C
14 13-05-2021 03:05:00 7.8 C 94 % 6.9 C
15 13-05-2021 03:10:00 7.8 C 94 % 6.9 C
16 13-05-2021 03:15:00 7.7 C 94 % 6.8 C
17 13-05-2021 03:20:00 7.7 C 94 % 6.8 C
18 13-05-2021 03:25:00 7.7 C 94 % 6.8 C
19 13-05-2021 03:30:00 7.6 C 94 % 6.7 C
20 13-05-2021 03:35:00 7.5 C 94 % 6.6 C
21 13-05-2021 03:40:00 7.4 C 94 % 6.5 C
22 13-05-2021 03:45:00 7.4 C 94 % 6.5 C
23 13-05-2021 03:50:00 7.4 C 94 % 6.5 C
24 13-05-2021 03:55:00 7.4 C 95 % 6.65 C
25 13-05-2021 04:00:00 7.4 C 95 % 6.65 C
Sensor: Nr:Datum:Temp:Feuchte:Taupunkt:
Aussen-T/F 26 13-05-2021 04:05:00 7.4 C 95 % 6.65 C
27 13-05-2021 04:10:00 7.3 C 95 % 6.55 C
28 13-05-2021 04:15:00 7.3 C 95 % 6.55 C
29 13-05-2021 04:20:00 7.2 C 95 % 6.45 C
30 13-05-2021 04:25:00 7.2 C 95 % 6.45 C
31 13-05-2021 04:30:00 7.2 C 95 % 6.45 C
32 13-05-2021 04:35:00 7.2 C 95 % 6.45 C
33 13-05-2021 04:40:00 7.2 C 95 % 6.45 C
34 13-05-2021 04:45:00 7.2 C 95 % 6.45 C
35 13-05-2021 04:50:00 7.1 C 95 % 6.35 C
36 13-05-2021 04:55:00 7.1 C 95 % 6.35 C
37 13-05-2021 05:00:00 7 C 95 % 6.26 C
38 13-05-2021 05:05:00 7 C 95 % 6.26 C
39 13-05-2021 05:10:00 7 C 95 % 6.26 C
40 13-05-2021 05:15:00 6.9 C 95 % 6.16 C
41 13-05-2021 05:20:00 6.8 C 95 % 6.06 C
42 13-05-2021 05:25:00 6.7 C 95 % 5.96 C
43 13-05-2021 05:30:00 6.6 C 95 % 5.86 C
44 13-05-2021 05:35:00 6.6 C 95 % 5.86 C
45 13-05-2021 05:40:00 6.5 C 95 % 5.76 C
46 13-05-2021 05:45:00 6.4 C 95 % 5.66 C
47 13-05-2021 05:50:00 6.4 C 95 % 5.66 C
48 13-05-2021 05:55:00 6.5 C 95 % 5.76 C
49 13-05-2021 06:00:00 6.4 C 95 % 5.66 C
50 13-05-2021 06:05:00 6.4 C 95 % 5.66 C
Sensor: Nr:Datum:Temp:Feuchte:Taupunkt:
Aussen-T/F 51 13-05-2021 06:10:00 6.4 C 95 % 5.66 C
52 13-05-2021 06:15:00 6.5 C 96 % 5.91 C
53 13-05-2021 06:20:00 6.7 C 96 % 6.11 C
54 13-05-2021 06:25:00 6.8 C 96 % 6.21 C
55 13-05-2021 06:30:00 6.9 C 96 % 6.31 C
56 13-05-2021 06:35:00 6.9 C 96 % 6.31 C
57 13-05-2021 06:40:00 6.9 C 96 % 6.31 C
58 13-05-2021 06:45:00 6.9 C 96 % 6.31 C
59 13-05-2021 06:50:00 7 C 96 % 6.41 C
60 13-05-2021 06:55:00 7.1 C 96 % 6.51 C
61 13-05-2021 07:00:00 7.1 C 96 % 6.51 C
62 13-05-2021 07:05:00 7.2 C 96 % 6.61 C
63 13-05-2021 07:10:00 7.2 C 96 % 6.61 C
64 13-05-2021 07:15:00 7.2 C 96 % 6.61 C
65 13-05-2021 07:20:00 7.3 C 96 % 6.71 C
66 13-05-2021 07:25:00 7.3 C 96 % 6.71 C
67 13-05-2021 07:30:00 7.4 C 96 % 6.8 C
68 13-05-2021 07:35:00 7.4 C 96 % 6.8 C
69 13-05-2021 07:40:00 7.4 C 96 % 6.8 C
70 13-05-2021 07:45:00 7.5 C 96 % 6.9 C
71 13-05-2021 07:50:00 7.6 C 96 % 7 C
72 13-05-2021 07:55:00 7.8 C 96 % 7.2 C
73 13-05-2021 08:00:00 7.9 C 96 % 7.3 C
74 13-05-2021 08:05:00 7.9 C 96 % 7.3 C
75 13-05-2021 08:10:00 8 C 96 % 7.4 C
Sensor: Nr:Datum:Temp:Feuchte:Taupunkt:
Aussen-T/F 76 13-05-2021 08:15:00 8.1 C 96 % 7.5 C
77 13-05-2021 08:20:00 8.1 C 96 % 7.5 C
78 13-05-2021 08:25:00 8.1 C 96 % 7.5 C
79 13-05-2021 08:30:00 8.2 C 96 % 7.6 C
80 13-05-2021 08:35:00 8.2 C 96 % 7.6 C
81 13-05-2021 08:40:00 8.3 C 96 % 7.7 C
82 13-05-2021 08:45:00 8.3 C 96 % 7.7 C
83 13-05-2021 08:50:00 8.4 C 96 % 7.8 C
84 13-05-2021 08:55:00 8.5 C 96 % 7.9 C
85 13-05-2021 09:00:00 8.7 C 96 % 8.1 C
86 13-05-2021 09:05:00 8.8 C 96 % 8.2 C
87 13-05-2021 09:10:00 9.1 C 97 % 8.65 C
88 13-05-2021 09:15:00 9.2 C 96 % 8.6 C
89 13-05-2021 09:20:00 9.3 C 96 % 8.7 C
90 13-05-2021 09:25:00 9.5 C 96 % 8.89 C
91 13-05-2021 09:30:00 9.6 C 96 % 8.99 C

Legende:
   Min
   Max


Maximal/Minimal-Werte vom 13.05.2021 - 14.05.2021

Sensor Min Max Avg
Temp
(Aussen-T/F)
6.4 °C
13-05-2021  05:45:00
9.6 °C
13-05-2021  09:30:00
7.56 °C
Feuchte
(Aussen-T/F)
93 %
13-05-2021  02:00:00
97 %
13-05-2021  09:10:00
95.11 %
Taupunkt
(Aussen-T/F)
5.66 C
13-05-2021  05:45:00
8.99 C
13-05-2021  09:30:00
6.76 C

Die Daten stammen von einer Davis Vantage Pro 2 Wetter-Station und werden unter Linux mit der Software wview2wettercgi und aufbereitet. Alle Angaben erfolgen ohne Gewähr für ihre Vollständigkeit oder Richtigkeit.
Kontakt: Rainer Krienke krienke@uni-koblenz.de . Meine Webseiten an der Uni Koblenz oder privat.
Version: $Revision: 0.78 $